KHTL

Roscommon County - Blodgett Memorial Airport

Houghton Lake, Michigan, USA
METAR KHTL 160553Z AUTO 02004KT 8SM CLR 17/17 A3000 RMK AO2 SLP153 T01720167 10278 20172 53001
Observed Flight Rules
Aug-16 @ 05:53 UTC (23 minutes ago) Visual Flight Rules
Wind Visibility Clouds
20° at 4 knots 8 miles
  • Clear skies
Temperatures Readings
Current 17°C / 63°F
Dewpoint 17°C / 63°F
Humidity 100%
Altimeter 30" Hg
Pressure 1015.3 hPa
Elevation 351
METAR KHTL 160553Z AUTO 02004KT 8SM CLR 17/17 A3000 RMK AO2 SLP153 T01720167 10278 20172 53001
Observed Flight Rules
Aug-16 @ 05:53 UTC
(23 minutes ago)
VFR
Wind Visibility
20° at 4 knots 8 miles
Clouds
  • Clear skies
Temperature Dewpoint
17°C / 63°F 17°C / 63°F
Humidity Altimeter Pressure
100% 30" Hg 1015.3 hPa